createdAt,value
2023-01-17T00:02:23.712Z,55.30
2023-01-17T00:04:52.048Z,54.00
2023-01-17T00:07:22.352Z,59.90
2023-01-17T00:09:50.588Z,63.30
2023-01-17T00:12:19.087Z,65.30
2023-01-17T00:14:48.473Z,66.80
2023-01-17T00:17:16.750Z,68.50
2023-01-17T00:19:45.119Z,68.00
2023-01-17T00:22:22.991Z,61.20
2023-01-17T00:24:51.394Z,59.00
2023-01-17T00:27:19.594Z,57.40
2023-01-17T00:29:47.794Z,61.70
2023-01-17T00:32:17.281Z,65.40
2023-01-17T00:34:45.387Z,67.40
2023-01-17T00:37:13.598Z,68.80
2023-01-17T00:39:41.911Z,70.20
2023-01-17T00:42:10.306Z,65.40
2023-01-17T00:44:38.679Z,61.10
2023-01-17T00:47:06.813Z,59.30
2023-01-17T00:49:35.094Z,57.70
2023-01-17T00:52:03.205Z,63.10
2023-01-17T00:54:31.392Z,66.50
2023-01-17T00:56:59.821Z,68.30
2023-01-17T00:59:28.198Z,69.60
2023-01-17T01:01:56.523Z,71.10
2023-01-17T01:04:24.670Z,64.10
2023-01-17T01:06:52.975Z,61.20
2023-01-17T01:09:21.191Z,59.10
2023-01-17T01:11:51.052Z,57.60
2023-01-17T01:14:19.480Z,56.90
2023-01-17T01:16:48.065Z,63.60
2023-01-17T01:19:16.296Z,66.40
2023-01-17T01:21:45.129Z,67.60
2023-01-17T01:24:12.870Z,69.70
2023-01-17T01:26:41.084Z,70.90
2023-01-17T01:29:09.312Z,63.20
2023-01-17T01:31:38.873Z,60.40
2023-01-17T01:34:07.180Z,58.50
2023-01-17T01:36:35.409Z,57.20
2023-01-17T01:39:03.583Z,64.30
2023-01-17T01:41:32.279Z,66.90
2023-01-17T01:44:00.610Z,68.50
2023-01-17T01:46:48.258Z,69.90
2023-01-17T01:49:23.662Z,71.40
2023-01-17T01:52:01.233Z,65.80
2023-01-17T01:54:51.952Z,61.40
2023-01-17T01:57:24.252Z,59.80
2023-01-17T02:00:21.293Z,60.30
2023-01-17T02:02:50.727Z,66.70
2023-01-17T02:05:23.190Z,68.80
2023-01-17T02:08:03.833Z,70.10
2023-01-17T02:10:37.260Z,71.40
2023-01-17T02:13:07.847Z,66.20
2023-01-17T02:15:54.485Z,62.20
2023-01-17T02:18:35.536Z,59.70
2023-01-17T02:21:13.227Z,65.50
2023-01-17T02:24:06.109Z,68.60
2023-01-17T02:27:14.332Z,70.60
2023-01-17T02:30:10.693Z,71.90
2023-01-17T02:33:02.963Z,67.30
2023-01-17T02:35:43.271Z,62.20
2023-01-17T02:38:42.038Z,60.00
2023-01-17T02:41:19.986Z,65.60
2023-01-17T02:43:51.183Z,68.80
2023-01-17T02:46:19.659Z,70.50
2023-01-17T02:48:49.196Z,71.90
2023-01-17T02:51:29.877Z,71.80
2023-01-17T02:54:43.474Z,64.70
2023-01-17T02:57:21.017Z,62.00
2023-01-17T03:00:11.358Z,59.60
2023-01-17T03:02:48.512Z,58.90
2023-01-17T03:05:50.209Z,66.10
2023-01-17T03:08:19.892Z,68.50
2023-01-17T03:10:48.346Z,70.00
2023-01-17T03:13:16.761Z,71.70
2023-01-17T03:15:45.721Z,68.50
2023-01-17T03:18:17.532Z,63.10
2023-01-17T03:20:45.811Z,60.80
2023-01-17T03:23:13.960Z,60.50
2023-01-17T03:25:42.191Z,66.70
2023-01-17T03:28:11.606Z,68.90
2023-01-17T03:30:39.875Z,70.50
2023-01-17T03:33:07.985Z,71.70
2023-01-17T03:35:36.368Z,72.90
2023-01-17T03:38:04.604Z,66.40
2023-01-17T03:40:32.839Z,62.60
2023-01-17T03:43:00.988Z,60.50
2023-01-17T03:45:29.317Z,65.10
2023-01-17T03:47:57.530Z,68.50
2023-01-17T03:50:26.155Z,70.90
2023-01-17T03:52:54.106Z,72.50
2023-01-17T03:55:22.359Z,75.30
2023-01-17T03:57:50.713Z,75.70
2023-01-17T04:00:19.423Z,69.50
2023-01-17T04:02:47.385Z,64.20
2023-01-17T04:05:15.611Z,61.70
2023-01-17T04:07:44.445Z,60.00
2023-01-17T04:10:12.275Z,66.40
2023-01-17T04:12:40.615Z,68.90
2023-01-17T04:15:09.103Z,70.70
2023-01-17T04:17:37.280Z,71.70
2023-01-17T04:20:06.173Z,73.10
2023-01-17T04:22:34.612Z,69.90
2023-01-17T04:25:02.953Z,64.40
2023-01-17T04:27:31.159Z,61.90
2023-01-17T04:29:59.389Z,60.50
2023-01-17T04:32:27.958Z,67.50
2023-01-17T04:34:56.157Z,69.60
2023-01-17T04:37:24.399Z,71.10
2023-01-17T04:39:52.616Z,72.50
2023-01-17T04:42:20.783Z,73.70
2023-01-17T04:44:48.956Z,69.60
2023-01-17T04:47:17.164Z,64.30
2023-01-17T04:49:45.377Z,62.20
2023-01-17T04:52:13.643Z,61.30
2023-01-17T04:54:42.492Z,67.60
2023-01-17T04:57:11.040Z,70.00
2023-01-17T04:59:39.429Z,71.60
2023-01-17T05:02:07.540Z,73.00
2023-01-17T05:04:35.832Z,73.90
2023-01-17T05:07:04.584Z,68.20
2023-01-17T05:09:32.716Z,64.00
2023-01-17T05:12:01.149Z,62.00
2023-01-17T05:14:29.380Z,62.60
2023-01-17T05:16:58.200Z,68.30
2023-01-17T05:19:27.604Z,70.40
2023-01-17T05:21:55.875Z,72.10
2023-01-17T05:24:24.139Z,73.10
2023-01-17T05:26:52.387Z,74.30
2023-01-17T05:29:21.136Z,70.10
2023-01-17T05:31:48.907Z,64.80
2023-01-17T05:34:17.425Z,62.60
2023-01-17T05:36:45.666Z,65.40
2023-01-17T05:39:14.019Z,69.60
2023-01-17T05:41:42.258Z,71.40
2023-01-17T05:44:10.584Z,72.80
2023-01-17T05:46:39.159Z,73.80
2023-01-17T05:49:07.342Z,75.00
2023-01-17T05:51:35.533Z,69.90
2023-01-17T05:54:04.882Z,65.30
2023-01-17T05:56:33.619Z,63.30
2023-01-17T05:59:01.558Z,70.00
2023-01-17T06:01:29.843Z,72.00
2023-01-17T06:03:58.226Z,73.60
2023-01-17T06:06:26.452Z,74.40
2023-01-17T06:08:54.682Z,75.30
2023-01-17T06:11:22.926Z,69.00
2023-01-17T06:13:51.217Z,65.30
2023-01-17T06:16:19.426Z,63.30
2023-01-17T06:18:47.816Z,69.40
2023-01-17T06:21:15.907Z,71.90
2023-01-17T06:23:44.275Z,73.60
2023-01-17T06:26:12.493Z,74.50
2023-01-17T06:28:40.589Z,75.80
2023-01-17T06:31:09.635Z,71.50
2023-01-17T06:33:37.918Z,65.90
2023-01-17T06:36:06.393Z,63.60
2023-01-17T06:38:34.699Z,65.30
2023-01-17T06:41:06.811Z,70.10
2023-01-17T06:43:34.995Z,72.40
2023-01-17T06:46:03.268Z,73.70
2023-01-17T06:48:32.792Z,74.90
2023-01-17T06:51:01.045Z,75.40
2023-01-17T06:53:29.403Z,76.70
2023-01-17T06:55:58.181Z,68.40
2023-01-17T06:58:26.047Z,65.00
2023-01-17T07:00:54.827Z,69.00
2023-01-17T07:03:25.387Z,72.30
2023-01-17T07:05:54.084Z,74.10
2023-01-17T07:08:22.362Z,75.80
2023-01-17T07:10:50.516Z,76.50
2023-01-17T07:13:18.859Z,71.70
2023-01-17T07:15:47.071Z,66.60
2023-01-17T07:18:15.192Z,65.60
2023-01-17T07:20:44.342Z,69.80
2023-01-17T07:23:12.890Z,73.40
2023-01-17T07:25:40.972Z,75.30
2023-01-17T07:28:09.679Z,77.70
2023-01-17T07:30:37.632Z,78.40
2023-01-17T07:33:05.769Z,71.50
2023-01-17T07:35:34.107Z,68.30
2023-01-17T07:38:02.404Z,65.40
2023-01-17T07:40:31.211Z,63.50
2023-01-17T07:43:04.067Z,69.70
2023-01-17T07:45:32.588Z,72.30
2023-01-17T07:48:00.938Z,73.70
2023-01-17T07:50:29.182Z,75.10
2023-01-17T07:52:57.408Z,76.40
2023-01-17T07:55:25.514Z,76.70
2023-01-17T07:57:53.990Z,69.50
2023-01-17T08:00:22.718Z,66.60
2023-01-17T08:02:50.992Z,64.00
2023-01-17T08:05:19.419Z,69.90
2023-01-17T08:07:47.673Z,72.60
2023-01-17T08:10:16.154Z,74.10
2023-01-17T08:12:49.875Z,75.40
2023-01-17T08:15:18.855Z,76.50
2023-01-17T08:17:48.892Z,77.30
2023-01-17T08:20:17.320Z,70.40
2023-01-17T08:22:45.482Z,66.50
2023-01-17T08:25:13.939Z,69.10
2023-01-17T08:27:42.053Z,73.00
2023-01-17T08:30:10.807Z,74.70
2023-01-17T08:32:38.667Z,76.90
2023-01-17T08:35:07.610Z,78.50
2023-01-17T08:37:35.920Z,77.80
2023-01-17T08:40:05.135Z,71.20
2023-01-17T08:42:33.423Z,67.70
2023-01-17T08:45:01.563Z,65.80
2023-01-17T08:47:29.910Z,64.80
2023-01-17T08:49:58.227Z,64.40
2023-01-17T08:52:26.707Z,64.30
2023-01-17T08:54:55.291Z,63.00
2023-01-17T08:57:23.713Z,66.10
2023-01-17T08:59:54.461Z,71.00
2023-01-17T09:02:22.679Z,72.90
2023-01-17T09:04:51.573Z,74.40
2023-01-17T09:07:20.908Z,75.10
2023-01-17T09:09:49.266Z,76.60
2023-01-17T09:12:17.490Z,70.60
2023-01-17T09:14:45.632Z,66.90
2023-01-17T09:17:14.597Z,65.00
2023-01-17T09:19:43.856Z,69.50
2023-01-17T09:22:15.204Z,72.90
2023-01-17T09:24:43.572Z,74.30
2023-01-17T09:27:11.728Z,75.40
2023-01-17T09:29:39.928Z,76.50
2023-01-17T09:32:08.290Z,77.90
2023-01-17T09:34:36.618Z,69.90
2023-01-17T09:37:05.036Z,66.80
2023-01-17T09:39:33.183Z,64.70
2023-01-17T09:42:40.901Z,68.80
2023-01-17T09:45:17.970Z,72.50
2023-01-17T09:47:55.245Z,74.10
2023-01-17T09:50:34.093Z,75.50
2023-01-17T09:53:15.471Z,76.20
2023-01-17T09:56:06.252Z,71.50
2023-01-17T09:58:43.630Z,67.20
2023-01-17T10:01:30.713Z,65.10
2023-01-17T10:04:12.207Z,63.10
2023-01-17T10:07:03.474Z,69.80
2023-01-17T10:09:49.677Z,72.30
2023-01-17T10:12:27.052Z,74.10
2023-01-17T10:15:20.285Z,75.20
2023-01-17T10:18:03.771Z,76.00
2023-01-17T10:20:44.101Z,67.90
2023-01-17T10:23:18.449Z,64.80
2023-01-17T10:25:51.618Z,63.40
2023-01-17T10:28:29.637Z,69.90
2023-01-17T10:31:06.826Z,72.10
2023-01-17T10:33:49.384Z,73.90
2023-01-17T10:36:30.764Z,75.10
2023-01-17T10:39:03.203Z,76.70
2023-01-17T10:41:45.579Z,70.10
2023-01-17T10:44:29.504Z,66.40
2023-01-17T10:47:07.049Z,64.50
2023-01-17T10:49:36.840Z,62.60
2023-01-17T10:52:12.896Z,68.10
2023-01-17T10:55:05.797Z,70.90
2023-01-17T10:57:48.728Z,72.90
2023-01-17T11:00:40.566Z,73.70
2023-01-17T11:03:12.557Z,75.50
2023-01-17T11:05:41.823Z,68.00
2023-01-17T11:08:12.950Z,64.90
2023-01-17T11:10:53.594Z,62.90
2023-01-17T11:13:29.512Z,67.30
2023-01-17T11:16:01.259Z,70.80
2023-01-17T11:18:32.523Z,72.80
2023-01-17T11:21:26.682Z,73.70
2023-01-17T11:23:56.656Z,75.10
2023-01-17T11:26:33.442Z,70.00
2023-01-17T11:29:36.835Z,65.80
2023-01-17T11:32:37.475Z,63.80
2023-01-17T11:35:13.289Z,61.80
2023-01-17T11:37:49.852Z,67.20
2023-01-17T11:40:30.230Z,70.40
2023-01-17T11:43:21.569Z,72.40
2023-01-17T11:46:14.250Z,73.70
2023-01-17T11:48:47.663Z,74.70
2023-01-17T11:51:32.390Z,68.30
2023-01-17T11:54:15.640Z,65.00
2023-01-17T11:56:44.682Z,62.90
2023-01-17T11:59:30.902Z,61.50
2023-01-17T12:02:04.992Z,59.90
2023-01-17T12:04:41.807Z,64.70
2023-01-17T12:07:46.533Z,68.60
2023-01-17T12:10:48.348Z,71.20
2023-01-17T12:13:23.001Z,72.80
2023-01-17T12:16:00.423Z,73.70
2023-01-17T12:18:47.663Z,67.60
2023-01-17T12:21:18.174Z,64.20
2023-01-17T12:23:52.208Z,62.40
2023-01-17T12:26:41.515Z,61.00
2023-01-17T12:29:33.892Z,61.50
2023-01-17T12:32:31.712Z,67.50
2023-01-17T12:35:34.889Z,70.20
2023-01-17T12:38:10.542Z,72.30
2023-01-17T12:41:07.807Z,72.60
2023-01-17T12:43:40.115Z,65.10
2023-01-17T12:46:26.797Z,62.90
2023-01-17T12:49:15.201Z,61.40
2023-01-17T12:51:47.345Z,59.40
2023-01-17T12:54:28.044Z,58.00
2023-01-17T12:57:06.313Z,57.30
2023-01-17T12:59:40.404Z,56.40
2023-01-17T13:02:27.711Z,60.60
2023-01-17T13:05:22.087Z,65.40
2023-01-17T13:07:56.871Z,68.30
2023-01-17T13:11:04.485Z,70.10
2023-01-17T13:13:34.602Z,71.80
2023-01-17T13:16:17.435Z,68.50
2023-01-17T13:18:48.422Z,63.50
2023-01-17T13:21:42.981Z,61.70
2023-01-17T13:24:28.622Z,60.10
2023-01-17T13:26:57.047Z,59.10
2023-01-17T13:30:00.771Z,58.40
2023-01-17T13:32:47.333Z,57.30
2023-01-17T13:35:37.971Z,56.10
2023-01-17T13:38:25.532Z,55.50
2023-01-17T13:41:06.026Z,61.70
2023-01-17T13:43:43.883Z,65.40
2023-01-17T13:46:12.308Z,67.70
2023-01-17T13:48:40.601Z,69.20
2023-01-17T13:51:12.465Z,71.00
2023-01-17T13:53:40.646Z,66.20
2023-01-17T13:56:24.226Z,62.10
2023-01-17T13:58:52.498Z,60.30
2023-01-17T14:01:23.628Z,58.90
2023-01-17T14:03:52.067Z,57.70
2023-01-17T14:06:43.457Z,60.20
2023-01-17T14:09:14.010Z,66.10
2023-01-17T14:12:00.437Z,68.60
2023-01-17T14:14:40.941Z,70.40
2023-01-17T14:17:21.495Z,72.20
2023-01-17T14:19:54.561Z,65.20
2023-01-17T14:22:25.065Z,62.50
2023-01-17T14:25:13.423Z,60.80
2023-01-17T14:27:44.397Z,58.90
2023-01-17T14:30:21.840Z,57.80
2023-01-17T14:33:02.382Z,57.50
2023-01-17T14:35:33.367Z,56.20
2023-01-17T14:38:01.989Z,55.30
2023-01-17T14:40:36.303Z,54.60
2023-01-17T14:43:27.260Z,57.80
2023-01-17T14:46:02.177Z,63.50
2023-01-17T14:48:31.083Z,66.50
2023-01-17T14:51:00.186Z,68.40
2023-01-17T14:53:33.313Z,68.90
2023-01-17T14:56:17.145Z,62.20
2023-01-17T14:58:45.644Z,59.80
2023-01-17T15:01:19.146Z,58.30
2023-01-17T15:03:48.808Z,57.40
2023-01-17T15:06:40.089Z,56.10
2023-01-17T15:09:30.091Z,55.40
2023-01-17T15:11:59.136Z,54.40
2023-01-17T15:14:33.774Z,53.90
2023-01-17T15:17:22.607Z,53.40
2023-01-17T15:20:05.377Z,53.00
2023-01-17T15:22:34.464Z,52.00
2023-01-17T15:25:03.228Z,51.50
2023-01-17T15:27:32.222Z,51.20
2023-01-17T15:30:01.210Z,50.80
2023-01-17T15:32:29.572Z,51.20
2023-01-17T15:34:58.180Z,50.50
2023-01-17T15:37:39.251Z,49.90
2023-01-17T15:40:25.665Z,49.50
2023-01-17T15:43:01.032Z,49.90
2023-01-17T15:45:32.102Z,49.20
2023-01-17T15:48:35.316Z,49.70
2023-01-17T15:51:03.608Z,50.10
2023-01-17T15:53:35.987Z,48.80
2023-01-17T15:56:31.360Z,48.50
2023-01-17T15:59:21.607Z,48.60
2023-01-17T16:01:59.818Z,48.90
2023-01-17T16:04:37.419Z,48.40
2023-01-17T16:07:19.278Z,48.20
2023-01-17T16:09:48.540Z,48.20
2023-01-17T16:12:16.768Z,47.90
2023-01-17T16:15:02.805Z,48.00
2023-01-17T16:17:33.563Z,47.80
2023-01-17T16:20:02.004Z,47.90
2023-01-17T16:22:30.193Z,47.50
2023-01-17T16:24:58.601Z,47.80
2023-01-17T16:27:26.993Z,47.00
2023-01-17T16:29:56.436Z,47.30
2023-01-17T16:32:24.819Z,47.30
2023-01-17T16:34:52.972Z,47.60
2023-01-17T16:37:22.148Z,47.70
2023-01-17T16:39:50.470Z,47.60
2023-01-17T16:42:18.724Z,47.80
2023-01-17T16:44:47.050Z,47.30
2023-01-17T16:47:15.168Z,47.30
2023-01-17T16:49:43.391Z,47.10
2023-01-17T16:52:11.790Z,47.10
2023-01-17T16:54:40.037Z,46.70
2023-01-17T16:57:08.320Z,46.60
2023-01-17T16:59:49.960Z,46.30
2023-01-17T17:02:18.984Z,50.70
2023-01-17T17:04:47.445Z,56.90
2023-01-17T17:07:15.855Z,59.70
2023-01-17T17:09:44.183Z,62.00
2023-01-17T17:12:12.547Z,63.30
2023-01-17T17:14:40.648Z,56.60
2023-01-17T17:17:09.292Z,54.60
2023-01-17T17:19:37.780Z,53.10
2023-01-17T17:22:06.005Z,52.10
2023-01-17T17:24:34.243Z,51.80
2023-01-17T17:27:02.445Z,50.70
2023-01-17T17:29:30.695Z,50.20
2023-01-17T17:31:59.029Z,49.20
2023-01-17T17:34:27.393Z,49.30
2023-01-17T17:36:55.666Z,48.40
2023-01-17T17:39:24.391Z,48.10
2023-01-17T17:41:52.529Z,48.50
2023-01-17T17:44:20.855Z,47.60
2023-01-17T17:46:49.096Z,47.20
2023-01-17T17:49:17.327Z,47.00
2023-01-17T17:51:45.686Z,46.90
2023-01-17T17:54:15.680Z,46.90
2023-01-17T17:56:44.825Z,51.10
2023-01-17T17:59:14.581Z,56.70
2023-01-17T18:01:42.862Z,59.50
2023-01-17T18:04:11.827Z,61.60
2023-01-17T18:06:41.051Z,63.40
2023-01-17T18:09:10.864Z,64.50
2023-01-17T18:11:41.477Z,58.10
2023-01-17T18:14:12.674Z,55.30
2023-01-17T18:16:43.649Z,54.50
2023-01-17T18:19:18.484Z,53.80
2023-01-17T18:21:47.082Z,60.30
2023-01-17T18:28:55.546Z,61.80
2023-01-17T18:31:25.200Z,69.50
2023-01-17T18:33:57.205Z,66.00
2023-01-17T18:36:26.280Z,62.70
2023-01-17T18:38:54.539Z,61.10
2023-01-17T18:41:27.675Z,60.40
2023-01-17T18:43:56.072Z,60.20
2023-01-17T18:46:25.945Z,59.00
2023-01-17T18:48:56.672Z,57.70
2023-01-17T18:51:26.537Z,64.90
2023-01-17T18:53:54.721Z,68.70
2023-01-17T18:56:24.453Z,68.90
2023-01-17T18:58:52.738Z,63.30
2023-01-17T19:01:24.038Z,62.20
2023-01-17T19:03:54.893Z,61.30
2023-01-17T19:06:29.279Z,60.80
2023-01-17T19:09:00.831Z,59.80
2023-01-17T19:11:29.732Z,55.90
2023-01-17T19:13:58.040Z,55.50
2023-01-17T19:16:29.114Z,54.50
2023-01-17T19:19:01.688Z,54.10
2023-01-17T19:21:30.762Z,53.40
2023-01-17T19:23:59.161Z,52.60
2023-01-17T19:26:28.249Z,51.30
2023-01-17T19:28:58.696Z,58.90
2023-01-17T19:31:30.054Z,61.70
2023-01-17T19:34:00.032Z,64.20
2023-01-17T19:36:32.844Z,65.70
2023-01-17T19:39:05.955Z,59.50
2023-01-17T19:41:36.711Z,56.90
2023-01-17T19:44:07.862Z,55.40
2023-01-17T19:46:37.131Z,54.00
2023-01-17T19:49:07.863Z,53.20
2023-01-17T19:51:36.587Z,52.00
2023-01-17T19:54:04.904Z,51.10
2023-01-17T19:56:33.158Z,50.20
2023-01-17T19:59:02.044Z,49.70
2023-01-17T20:01:32.995Z,49.20
2023-01-17T20:04:02.944Z,48.80
2023-01-17T20:06:36.341Z,52.00
2023-01-17T20:09:06.276Z,57.40
2023-01-17T20:11:35.106Z,60.30
2023-01-17T20:14:04.223Z,63.20
2023-01-17T20:16:33.149Z,66.10
2023-01-17T20:19:01.559Z,62.20
2023-01-17T20:21:31.265Z,58.80
2023-01-17T20:24:00.724Z,56.70
2023-01-17T20:26:31.379Z,55.40
2023-01-17T20:28:59.747Z,54.20
2023-01-17T20:31:28.614Z,53.10
2023-01-17T20:33:57.317Z,52.10
2023-01-17T20:36:26.456Z,51.50
2023-01-17T20:38:54.673Z,55.50
2023-01-17T20:41:27.104Z,60.00
2023-01-17T20:43:58.190Z,62.60
2023-01-17T20:46:28.656Z,64.50
2023-01-17T20:48:58.574Z,65.80
2023-01-17T20:51:29.702Z,63.30
2023-01-17T20:54:00.359Z,58.50
2023-01-17T20:56:28.991Z,56.40
2023-01-17T20:58:57.317Z,55.20
2023-01-17T21:01:25.853Z,54.00
2023-01-17T21:03:54.270Z,52.80
2023-01-17T21:06:24.152Z,51.90
2023-01-17T21:08:53.136Z,50.80
2023-01-17T21:11:24.470Z,56.90
2023-01-17T21:13:52.937Z,60.40
2023-01-17T21:16:22.704Z,62.80
2023-01-17T21:18:53.455Z,64.60
2023-01-17T21:21:24.936Z,66.00
2023-01-17T21:23:55.295Z,63.40
2023-01-17T21:26:25.183Z,59.30
2023-01-17T21:28:54.238Z,58.90
2023-01-17T21:31:28.240Z,57.00
2023-01-17T21:34:08.224Z,55.70
2023-01-17T21:36:38.935Z,54.70
2023-01-17T21:39:14.037Z,53.60
2023-01-17T21:41:43.865Z,52.70
2023-01-17T21:44:15.698Z,51.70
2023-01-17T21:46:44.074Z,51.10
2023-01-17T21:49:12.858Z,50.30
2023-01-17T21:51:42.404Z,49.80
2023-01-17T21:54:10.793Z,56.70
2023-01-17T21:56:38.976Z,60.20
2023-01-17T21:59:07.330Z,62.50
2023-01-17T22:01:35.631Z,64.10
2023-01-17T22:04:04.597Z,65.60
2023-01-17T22:06:34.753Z,63.30
2023-01-17T22:09:03.999Z,58.30
2023-01-17T22:11:32.315Z,56.50
2023-01-17T22:14:00.375Z,54.90
2023-01-17T22:16:28.671Z,60.10
2023-01-17T22:18:57.168Z,63.60
2023-01-17T22:21:28.061Z,65.70
2023-01-17T22:23:59.085Z,67.20
2023-01-17T22:26:30.736Z,66.00
2023-01-17T22:29:02.689Z,59.90
2023-01-17T22:31:31.687Z,57.70
2023-01-17T22:34:02.773Z,56.40
2023-01-17T22:36:33.378Z,55.00
2023-01-17T22:39:01.893Z,53.80
2023-01-17T22:41:30.977Z,56.40
2023-01-17T22:44:00.741Z,61.80
2023-01-17T22:46:32.156Z,64.20
2023-01-17T22:49:00.657Z,65.90
2023-01-17T22:51:29.567Z,67.50
2023-01-17T22:54:00.246Z,63.20
2023-01-17T22:56:33.033Z,59.10
2023-01-17T22:59:02.093Z,57.30
2023-01-17T23:01:32.929Z,55.80
2023-01-17T23:04:05.372Z,54.60
2023-01-17T23:06:38.935Z,60.50
2023-01-17T23:09:12.661Z,63.70
2023-01-17T23:11:52.396Z,65.70
2023-01-17T23:14:26.542Z,67.20
2023-01-17T23:17:03.139Z,67.30
2023-01-17T23:19:40.970Z,60.30
2023-01-17T23:22:20.409Z,58.30
2023-01-17T23:24:50.396Z,56.30
2023-01-17T23:27:37.989Z,55.10
2023-01-17T23:30:09.700Z,53.90
2023-01-17T23:32:39.323Z,52.60
2023-01-17T23:35:07.968Z,56.60
2023-01-17T23:37:36.299Z,61.40
2023-01-17T23:40:04.741Z,63.80
2023-01-17T23:42:32.958Z,65.60
2023-01-17T23:45:01.122Z,66.90
2023-01-17T23:47:29.494Z,62.30
2023-01-17T23:49:57.550Z,58.60
2023-01-17T23:52:25.786Z,56.70
2023-01-17T23:54:54.139Z,55.80
2023-01-17T23:57:22.416Z,54.50
2023-01-17T23:59:50.490Z,57.90
